Time;durP1;ratioP1;P1;durP2;ratioP2;P2;SDS_P1;SDS_P2;PMS_P1;PMS_P2;Temp;Humidity;BMP_temperature;BMP_pressure;BME280_temperature;BME280_humidity;BME280_pressure;Samples;Min_cycle;Max_cycle;Signal;HPM_P1;HPM_P2
2023/01/28 00:00:09;;;;;;;12.93;9.32;;;2.70;99.90;;;;;;7330342;32;20219;-62
2023/01/28 00:04:11;;;;;;;12.43;9.85;;;2.70;99.90;;;;;;7336017;32;20166;-60
2023/01/28 00:08:13;;;;;;;13.25;8.80;;;2.70;99.90;;;;;;7340914;32;20107;-60
2023/01/28 00:12:15;;;;;;;10.38;8.95;;;2.70;99.90;;;;;;7340890;32;20108;-60
2023/01/28 00:16:17;;;;;;;10.73;9.15;;;2.60;99.90;;;;;;7329824;32;20206;-61
2023/01/28 00:20:18;;;;;;;11.02;8.63;;;2.60;99.90;;;;;;7338909;32;20224;-61
2023/01/28 00:24:20;;;;;;;12.35;7.43;;;2.60;99.90;;;;;;7322755;32;20166;-60
2023/01/28 00:28:22;;;;;;;9.02;7.00;;;2.40;99.90;;;;;;7332055;32;20228;-61
2023/01/28 00:32:24;;;;;;;7.45;6.53;;;2.40;99.90;;;;;;7338851;32;20123;-60
2023/01/28 00:36:26;;;;;;;10.82;6.95;;;2.40;99.90;;;;;;7340780;32;20200;-60
2023/01/28 00:40:28;;;;;;;8.73;6.82;;;2.40;99.90;;;;;;7342262;32;20182;-61
2023/01/28 00:44:30;;;;;;;8.52;6.90;;;2.40;99.90;;;;;;7340051;32;20201;-61
2023/01/28 00:48:32;;;;;;;8.75;6.50;;;2.50;99.90;;;;;;7339973;32;20757;-62
2023/01/28 00:52:34;;;;;;;9.02;6.78;;;2.40;99.90;;;;;;7323846;32;20766;-61
2023/01/28 00:56:36;;;;;;;8.90;6.22;;;2.30;99.90;;;;;;7335201;32;20220;-61
2023/01/28 01:00:37;;;;;;;9.35;6.37;;;2.30;99.90;;;;;;7340629;32;20108;-63
2023/01/28 01:04:40;;;;;;;9.70;5.90;;;2.20;99.90;;;;;;7347417;32;20199;-60
2023/01/28 01:08:48;;;;;;;9.93;5.97;;;2.30;99.90;;;;;;7344191;32;20111;-61
2023/01/28 01:12:51;;;;;;;12.13;6.20;;;2.30;99.90;;;;;;7322547;32;20156;-60
2023/01/28 01:16:53;;;;;;;7.55;6.20;;;2.20;99.90;;;;;;7343124;32;20140;-61
2023/01/28 01:20:57;;;;;;;7.53;6.00;;;2.20;99.90;;;;;;7343551;32;20136;-60
2023/01/28 01:24:59;;;;;;;6.80;5.28;;;2.20;99.90;;;;;;7350896;32;20159;-61
2023/01/28 01:29:01;;;;;;;7.55;5.37;;;2.20;99.90;;;;;;7334498;32;20149;-61
2023/01/28 01:33:03;;;;;;;5.80;5.00;;;2.10;99.90;;;;;;7350294;32;20143;-61
2023/01/28 01:37:07;;;;;;;6.22;5.30;;;2.10;99.90;;;;;;7343190;32;20336;-61
2023/01/28 01:41:21;;;;;;;7.05;4.97;;;2.10;99.90;;;;;;7343361;32;20193;-61
2023/01/28 01:45:24;;;;;;;8.48;5.60;;;2.10;99.90;;;;;;7337875;32;20326;-61
2023/01/28 01:49:27;;;;;;;6.65;4.65;;;2.00;99.90;;;;;;7348348;32;20565;-61
2023/01/28 01:53:30;;;;;;;6.20;4.87;;;2.00;99.90;;;;;;7348254;32;20344;-63
2023/01/28 01:57:34;;;;;;;8.40;5.47;;;2.10;99.90;;;;;;7343672;32;20215;-61
2023/01/28 02:01:36;;;;;;;6.32;4.93;;;2.10;99.90;;;;;;7333759;32;20192;-63
2023/01/28 02:05:38;;;;;;;5.82;5.07;;;2.00;99.90;;;;;;7329747;32;20133;-61
2023/01/28 02:09:40;;;;;;;9.18;6.35;;;2.10;99.90;;;;;;7346777;32;20100;-61
2023/01/28 02:13:48;;;;;;;7.28;5.95;;;2.10;99.90;;;;;;7345936;32;20129;-61
2023/01/28 02:17:51;;;;;;;8.73;6.55;;;2.10;99.90;;;;;;7342799;32;20486;-61
2023/01/28 02:22:20;;;;;;;9.25;6.80;;;2.10;99.90;;;;;;7332385;32;20111;-61
2023/01/28 02:26:56;;;;;;;7.75;6.93;;;2.00;99.90;;;;;;7350519;32;20112;-61
2023/01/28 02:31:26;;;;;;;10.20;8.80;;;2.00;99.90;;;;;;7343853;32;20250;-61
2023/01/28 02:35:31;;;;;;;13.43;9.98;;;2.10;99.90;;;;;;7345990;32;20200;-62
2023/01/28 02:39:41;;;;;;;15.05;11.07;;;2.10;99.90;;;;;;7347334;32;20135;-61
2023/01/28 02:43:45;;;;;;;16.77;12.40;;;2.10;99.90;;;;;;7344321;32;20216;-61
2023/01/28 02:47:59;;;;;;;15.75;11.63;;;2.00;99.90;;;;;;7341723;32;20111;-61
2023/01/28 02:57:14;;;;;;;16.50;12.37;;;2.10;99.90;;;;;;7338281;32;21699;-61
2023/01/28 03:01:24;;;;;;;17.73;12.32;;;1.90;99.90;;;;;;7331064;32;20147;-61
2023/01/28 03:05:32;;;;;;;17.67;12.52;;;2.00;99.90;;;;;;7348982;32;20589;-61
2023/01/28 03:09:36;;;;;;;16.25;11.90;;;1.90;99.90;;;;;;7344382;32;20618;-61
2023/01/28 03:40:27;;;;;;;18.67;11.95;;;1.70;99.90;;;;;;7325426;32;20203;-62
2023/01/28 03:44:49;;;;;;;16.92;11.15;;;1.70;99.90;;;;;;7339002;32;20381;-62
2023/01/28 03:48:51;;;;;;;17.90;12.88;;;1.60;99.90;;;;;;7327483;32;20550;-61
2023/01/28 03:52:53;;;;;;;16.52;10.95;;;1.70;99.90;;;;;;7341075;32;20513;-61
2023/01/28 03:56:54;;;;;;;18.77;11.88;;;1.60;99.90;;;;;;7336817;32;20655;-61
2023/01/28 04:00:57;;;;;;;13.88;10.15;;;1.50;99.90;;;;;;7339037;32;20178;-64
2023/01/28 04:04:59;;;;;;;16.15;10.98;;;1.50;99.90;;;;;;7344495;32;20148;-62
2023/01/28 04:09:01;;;;;;;17.95;10.70;;;1.50;99.90;;;;;;7347966;32;20131;-61
2023/01/28 04:13:03;;;;;;;14.38;10.32;;;1.60;99.90;;;;;;7335529;32;20194;-61
2023/01/28 04:17:06;;;;;;;13.75;9.93;;;1.60;99.90;;;;;;7341748;32;20123;-63
2023/01/28 04:21:08;;;;;;;13.57;10.50;;;1.50;99.90;;;;;;7328587;32;20129;-62
2023/01/28 04:25:10;;;;;;;14.10;10.00;;;1.50;99.90;;;;;;7327077;32;20149;-61
2023/01/28 04:29:11;;;;;;;13.20;10.13;;;1.60;99.90;;;;;;7343980;32;20753;-61
2023/01/28 04:33:14;;;;;;;12.55;9.82;;;1.50;99.90;;;;;;7346803;32;20146;-61
2023/01/28 04:37:16;;;;;;;13.02;9.77;;;1.50;99.90;;;;;;7346598;32;20155;-61
2023/01/28 04:41:18;;;;;;;14.23;8.50;;;1.50;99.90;;;;;;7332475;32;20589;-62
2023/01/28 04:45:20;;;;;;;9.95;8.10;;;1.60;99.90;;;;;;7339966;32;20131;-61
2023/01/28 04:49:22;;;;;;;11.48;8.68;;;1.60;99.90;;;;;;7326305;32;20671;-61
2023/01/28 04:53:24;;;;;;;12.13;8.88;;;1.60;99.90;;;;;;7336885;32;20744;-61
2023/01/28 04:57:26;;;;;;;10.75;7.93;;;1.50;99.90;;;;;;7336596;32;20533;-61
2023/01/28 05:01:28;;;;;;;9.65;7.82;;;1.50;99.90;;;;;;7340130;32;20183;-61
2023/01/28 05:05:30;;;;;;;11.70;8.82;;;1.50;99.90;;;;;;7330737;32;20304;-61
2023/01/28 05:09:32;;;;;;;11.70;8.85;;;1.40;99.90;;;;;;7333119;32;20152;-60
2023/01/28 05:13:34;;;;;;;11.40;8.40;;;1.50;99.90;;;;;;7342524;32;20276;-61
2023/01/28 05:17:35;;;;;;;10.55;8.05;;;1.50;99.90;;;;;;7330327;32;20252;-60
2023/01/28 05:21:37;;;;;;;11.75;8.57;;;1.50;99.90;;;;;;7339636;32;20194;-62
2023/01/28 05:25:39;;;;;;;10.45;8.43;;;1.50;99.90;;;;;;7340057;32;20216;-61
2023/01/28 05:29:40;;;;;;;11.27;8.65;;;1.50;99.90;;;;;;7343808;32;20095;-60
2023/01/28 05:33:42;;;;;;;11.43;8.07;;;1.50;99.90;;;;;;7337068;32;20153;-60
2023/01/28 05:37:44;;;;;;;12.52;9.18;;;1.50;99.90;;;;;;7339459;32;20111;-61
2023/01/28 05:41:46;;;;;;;11.20;8.18;;;1.50;99.90;;;;;;7316671;32;20582;-60
2023/01/28 05:45:47;;;;;;;11.40;8.68;;;1.50;99.90;;;;;;7345094;32;20103;-63
2023/01/28 05:49:49;;;;;;;12.68;9.50;;;1.40;99.90;;;;;;7348915;32;20189;-61
2023/01/28 05:53:51;;;;;;;11.52;9.10;;;1.40;99.90;;;;;;7332353;32;20159;-61
2023/01/28 05:57:52;;;;;;;11.15;8.73;;;1.40;99.90;;;;;;7340763;32;20104;-60
2023/01/28 06:01:54;;;;;;;11.00;8.80;;;1.30;99.90;;;;;;7342582;32;20123;-60
2023/01/28 06:05:56;;;;;;;12.15;8.15;;;1.40;99.90;;;;;;7343701;32;20228;-63
2023/01/28 06:09:58;;;;;;;11.85;9.52;;;1.30;99.90;;;;;;7344856;32;20207;-60
2023/01/28 06:14:00;;;;;;;10.52;8.27;;;1.30;99.90;;;;;;7337047;32;20164;-60
2023/01/28 06:18:02;;;;;;;10.43;8.60;;;1.30;99.90;;;;;;7329000;32;20122;-60
2023/01/28 06:22:03;;;;;;;9.45;8.15;;;1.30;99.90;;;;;;7347857;32;20150;-61
2023/01/28 06:26:05;;;;;;;11.23;9.15;;;1.30;99.90;;;;;;7334803;32;20213;-60
2023/01/28 06:30:07;;;;;;;11.43;9.73;;;1.30;99.90;;;;;;7345788;32;20576;-63
2023/01/28 06:34:09;;;;;;;13.43;10.05;;;1.40;99.90;;;;;;7335780;32;20499;-61
2023/01/28 06:38:12;;;;;;;11.27;8.63;;;1.40;99.90;;;;;;7343267;32;20172;-61
2023/01/28 06:42:13;;;;;;;12.55;9.75;;;1.30;99.90;;;;;;7341624;32;20619;-61
2023/01/28 06:46:15;;;;;;;10.80;9.23;;;1.30;99.90;;;;;;7338184;32;20223;-61
2023/01/28 06:50:17;;;;;;;12.37;9.48;;;1.30;99.90;;;;;;7340715;32;20726;-63
2023/01/28 06:54:19;;;;;;;11.80;9.38;;;1.30;99.90;;;;;;7332737;32;20201;-61
2023/01/28 06:58:21;;;;;;;10.65;8.93;;;1.30;99.90;;;;;;7335459;32;20251;-60
2023/01/28 07:02:22;;;;;;;11.15;8.27;;;1.30;99.90;;;;;;7344620;32;20099;-61
2023/01/28 07:06:27;;;;;;;10.93;9.02;;;1.20;99.90;;;;;;7342391;32;20107;-61
2023/01/28 07:10:29;;;;;;;11.40;8.65;;;1.20;99.90;;;;;;7339743;32;20111;-61
2023/01/28 07:14:31;;;;;;;10.88;9.02;;;1.20;99.90;;;;;;7348759;32;20111;-60
2023/01/28 07:18:33;;;;;;;11.52;10.25;;;1.20;99.90;;;;;;7337862;32;20143;-62
2023/01/28 07:22:38;;;;;;;12.15;9.38;;;1.10;99.90;;;;;;7334063;32;20108;-62
2023/01/28 07:26:39;;;;;;;11.50;10.13;;;1.10;99.90;;;;;;7346158;32;20275;-62
2023/01/28 07:30:41;;;;;;;12.85;10.20;;;1.10;99.90;;;;;;7336011;32;20103;-61
2023/01/28 07:34:43;;;;;;;12.25;10.13;;;1.10;99.90;;;;;;7334802;32;20126;-61
2023/01/28 07:38:45;;;;;;;13.05;9.95;;;1.10;99.90;;;;;;7338109;32;20490;-62
2023/01/28 07:42:47;;;;;;;10.60;9.25;;;1.10;99.90;;;;;;7338236;32;20337;-63
2023/01/28 07:46:48;;;;;;;10.15;9.07;;;1.00;99.90;;;;;;7344160;32;20658;-62
2023/01/28 07:50:50;;;;;;;11.75;9.00;;;1.00;99.90;;;;;;7338639;32;20498;-63
2023/01/28 07:54:53;;;;;;;13.30;9.82;;;0.90;99.90;;;;;;7339494;32;20595;-63
2023/01/28 07:58:54;;;;;;;10.65;9.18;;;0.90;99.90;;;;;;7346369;32;20102;-61
2023/01/28 08:02:58;;;;;;;12.93;9.32;;;1.00;99.90;;;;;;7338824;32;20103;-62
2023/01/28 08:06:59;;;;;;;14.27;9.00;;;1.10;99.90;;;;;;7335336;32;20349;-62
2023/01/28 08:11:09;;;;;;;14.75;8.60;;;1.00;99.90;;;;;;7347673;32;20115;-62
2023/01/28 08:15:11;;;;;;;12.27;8.95;;;1.10;99.90;;;;;;7339637;32;20121;-62
2023/01/28 08:19:12;;;;;;;10.82;9.32;;;1.20;99.90;;;;;;7345210;32;20142;-62
2023/01/28 08:23:16;;;;;;;17.95;10.43;;;1.30;99.90;;;;;;7341994;32;20126;-62
2023/01/28 08:27:18;;;;;;;9.93;8.93;;;1.30;99.90;;;;;;7337978;32;20115;-62
2023/01/28 08:31:20;;;;;;;12.48;9.40;;;1.30;99.90;;;;;;7341669;32;20099;-62
2023/01/28 08:35:22;;;;;;;11.98;9.57;;;1.40;99.90;;;;;;7336823;32;20221;-62
2023/01/28 08:39:24;;;;;;;18.80;13.50;;;1.30;99.90;;;;;;7336625;32;20131;-63
2023/01/28 08:43:26;;;;;;;10.98;9.48;;;1.40;99.90;;;;;;7338559;32;20518;-62
2023/01/28 08:47:27;;;;;;;11.68;9.18;;;1.30;99.90;;;;;;7342522;32;20127;-62
2023/01/28 08:51:29;;;;;;;12.63;10.00;;;1.30;99.90;;;;;;7334786;32;20311;-62
2023/01/28 08:55:32;;;;;;;10.57;8.65;;;1.30;99.90;;;;;;7333553;32;20182;-62
2023/01/28 08:59:34;;;;;;;9.75;8.50;;;1.40;99.90;;;;;;7345682;32;20178;-61
2023/01/28 09:03:36;;;;;;;10.10;7.95;;;1.30;99.90;;;;;;7338428;32;20417;-61
2023/01/28 09:07:38;;;;;;;11.12;9.32;;;1.50;99.90;;;;;;7338786;32;20112;-61
2023/01/28 09:11:40;;;;;;;14.10;9.27;;;1.30;99.90;;;;;;7320237;32;20333;-60
2023/01/28 09:15:42;;;;;;;11.52;8.98;;;1.40;99.90;;;;;;7334496;32;20257;-60
2023/01/28 09:19:44;;;;;;;10.57;8.98;;;1.40;99.90;;;;;;7330861;32;20319;-61
2023/01/28 09:23:46;;;;;;;12.98;9.50;;;1.40;99.90;;;;;;7333030;32;20171;-60
2023/01/28 09:27:48;;;;;;;13.10;10.68;;;1.50;99.90;;;;;;7344523;32;20125;-61
2023/01/28 09:31:49;;;;;;;15.63;11.12;;;1.40;99.90;;;;;;7347096;32;20096;-61
2023/01/28 09:35:51;;;;;;;13.60;11.43;;;1.50;99.90;;;;;;7347815;32;20547;-57
2023/01/28 09:39:53;;;;;;;17.35;11.15;;;1.50;99.90;;;;;;7343286;32;20197;-60
2023/01/28 09:44:33;;;;;;;12.40;11.05;;;1.50;99.90;;;;;;7347013;32;20121;-61
2023/01/28 09:48:40;;;;;;;14.02;12.25;;;1.50;99.90;;;;;;7338409;32;20509;-61
2023/01/28 09:52:41;;;;;;;;;;;1.40;99.90;;;;;;7340829;32;20118;-61
2023/01/28 09:56:47;;;;;;;16.83;12.95;;;1.40;99.90;;;;;;7336667;32;20003;-62
2023/01/28 10:01:03;;;;;;;15.23;11.85;;;1.30;99.90;;;;;;7332210;32;20681;-62
2023/01/28 10:05:14;;;;;;;17.65;13.73;;;1.40;99.90;;;;;;7345561;32;20130;-61
2023/01/28 10:09:42;;;;;;;15.93;13.43;;;1.40;99.90;;;;;;7347687;32;20126;-62
2023/01/28 10:14:05;;;;;;;15.23;13.05;;;1.50;99.90;;;;;;7339745;32;20176;-65
2023/01/28 10:18:09;;;;;;;20.88;13.80;;;1.60;99.90;;;;;;7327569;32;20336;-62
2023/01/28 10:22:24;;;;;;;19.55;15.25;;;1.60;99.90;;;;;;7343852;32;20236;-62
2023/01/28 10:26:34;;;;;;;19.40;14.50;;;1.70;99.90;;;;;;7342982;32;20103;-62
2023/01/28 10:30:39;;;;;;;17.37;14.23;;;1.60;99.90;;;;;;7345233;32;20103;-62
2023/01/28 10:34:41;;;;;;;17.25;13.75;;;1.70;99.90;;;;;;7340616;32;20270;-60
2023/01/28 10:38:43;;;;;;;15.63;13.32;;;1.70;99.90;;;;;;7339554;32;20107;-60
2023/01/28 10:42:45;;;;;;;17.37;13.13;;;1.70;99.90;;;;;;7348664;32;20468;-61
2023/01/28 10:46:47;;;;;;;17.08;12.13;;;1.80;99.90;;;;;;7333430;32;20246;-62
2023/01/28 10:51:01;;;;;;;17.83;12.37;;;2.00;99.90;;;;;;7332894;32;20433;-60
2023/01/28 10:55:05;;;;;;;14.30;12.77;;;2.10;99.90;;;;;;7342802;32;20163;-60
2023/01/28 10:59:25;;;;;;;14.90;12.23;;;2.10;99.90;;;;;;7337815;32;20186;-62
2023/01/28 11:03:29;;;;;;;14.18;12.43;;;2.20;99.90;;;;;;7329277;32;20099;-63
2023/01/28 11:07:31;;;;;;;14.80;13.20;;;2.30;99.90;;;;;;7346795;32;20258;-60
2023/01/28 11:11:33;;;;;;;16.25;13.80;;;2.10;99.90;;;;;;7344604;32;20938;-61
2023/01/28 11:15:46;;;;;;;18.87;15.05;;;2.00;99.90;;;;;;7345269;32;20548;-60
2023/01/28 11:19:47;;;;;;;17.90;14.02;;;2.00;99.90;;;;;;7324552;32;20175;-61
2023/01/28 11:24:04;;;;;;;18.30;14.40;;;2.00;99.90;;;;;;7335181;32;20204;-60
2023/01/28 11:28:19;;;;;;;17.83;14.18;;;1.90;99.90;;;;;;7324405;32;20127;-60
2023/01/28 11:32:25;;;;;;;17.70;13.98;;;2.00;99.90;;;;;;7340004;32;22789;-59
2023/01/28 11:36:29;;;;;;;18.40;13.30;;;2.00;99.90;;;;;;7338713;32;20122;-62
2023/01/28 11:40:31;;;;;;;18.15;14.60;;;1.90;99.90;;;;;;7343875;32;20137;-60
2023/01/28 11:44:32;;;;;;;20.83;16.35;;;1.80;99.90;;;;;;7329625;32;20276;-61
2023/01/28 11:48:58;;;;;;;19.05;15.57;;;1.80;99.90;;;;;;7339156;32;20757;-60
2023/01/28 11:53:22;;;;;;;17.60;14.93;;;1.90;99.90;;;;;;7334314;32;20107;-60
2023/01/28 11:57:44;;;;;;;19.42;15.10;;;1.90;99.90;;;;;;7340370;32;20211;-61
2023/01/28 12:02:12;;;;;;;21.08;16.10;;;1.80;99.90;;;;;;7332469;32;20216;-61
2023/01/28 12:06:25;;;;;;;19.50;15.43;;;1.90;99.90;;;;;;7333740;32;20103;-62
2023/01/28 12:10:57;;;;;;;21.00;16.00;;;1.90;99.90;;;;;;7334922;32;20440;-62
2023/01/28 12:15:23;;;;;;;19.30;14.93;;;2.00;99.90;;;;;;7341424;32;20119;-60
2023/01/28 12:19:42;;;;;;;20.33;15.95;;;2.00;99.90;;;;;;7335090;32;20104;-61
2023/01/28 12:24:10;;;;;;;22.30;15.38;;;1.90;99.90;;;;;;7335896;32;20790;-61
2023/01/28 12:28:29;;;;;;;19.73;15.75;;;1.80;99.90;;;;;;7340875;32;20675;-61
2023/01/28 12:32:59;;;;;;;18.00;14.00;;;1.90;99.90;;;;;;7330670;32;20133;-61
2023/01/28 12:37:19;;;;;;;20.12;15.75;;;2.00;99.90;;;;;;7342894;32;20121;-59
2023/01/28 12:41:27;;;;;;;20.40;15.23;;;2.00;99.90;;;;;;7343532;32;20202;-59
2023/01/28 12:45:50;;;;;;;17.83;14.93;;;2.10;99.90;;;;;;7340144;32;20182;-62
2023/01/28 12:50:13;;;;;;;18.25;14.32;;;2.40;99.90;;;;;;7339170;32;20190;-62
2023/01/28 12:54:23;;;;;;;16.17;13.30;;;2.40;99.90;;;;;;7331093;32;20122;-62
2023/01/28 12:58:43;;;;;;;14.77;13.27;;;2.60;99.90;;;;;;7344013;32;20271;-62
2023/01/28 13:02:57;;;;;;;14.15;12.35;;;2.20;99.90;;;;;;7339596;32;20206;-62
2023/01/28 13:07:07;;;;;;;15.05;12.77;;;2.10;99.90;;;;;;7336928;32;20249;-62
2023/01/28 13:11:15;;;;;;;14.20;12.57;;;2.20;99.90;;;;;;7340114;32;20130;-62
2023/01/28 13:15:18;;;;;;;15.27;12.52;;;2.00;99.90;;;;;;7342804;32;20752;-62
2023/01/28 13:19:23;;;;;;;17.15;12.82;;;2.20;99.90;;;;;;7345717;32;20195;-62
2023/01/28 13:23:35;;;;;;;14.10;12.60;;;2.30;99.90;;;;;;7329109;32;20529;-61
2023/01/28 13:27:36;;;;;;;12.57;11.18;;;2.30;99.90;;;;;;7329210;32;20104;-63
2023/01/28 13:31:43;;;;;;;14.20;11.12;;;2.30;99.90;;;;;;7333548;32;20154;-62
2023/01/28 13:35:54;;;;;;;13.98;11.45;;;2.20;99.90;;;;;;7331499;32;20107;-63
2023/01/28 13:40:13;;;;;;;12.85;11.45;;;2.30;99.90;;;;;;7326547;32;20451;-63
2023/01/28 13:44:24;;;;;;;12.77;11.45;;;2.30;99.90;;;;;;7341851;32;20123;-62
2023/01/28 13:48:38;;;;;;;14.63;11.98;;;2.20;99.90;;;;;;7331189;32;20235;-61
2023/01/28 13:52:54;;;;;;;12.77;11.18;;;2.30;99.90;;;;;;7343078;32;20098;-61
2023/01/28 13:56:58;;;;;;;13.68;12.10;;;2.40;99.90;;;;;;7337127;32;20423;-61
2023/01/28 14:01:17;;;;;;;12.88;10.93;;;2.80;99.90;;;;;;7334604;32;20219;-62
2023/01/28 14:05:25;;;;;;;13.05;11.63;;;3.20;99.90;;;;;;7345778;32;20226;-62
2023/01/28 14:09:45;;;;;;;10.93;9.93;;;3.30;99.90;;;;;;7347691;32;20111;-64
2023/01/28 14:14:04;;;;;;;10.85;9.75;;;3.90;99.90;;;;;;7341086;32;20195;-62
2023/01/28 14:18:27;;;;;;;11.40;9.50;;;4.10;99.90;;;;;;7335932;32;20107;-62
2023/01/28 14:22:29;;;;;;;12.65;10.10;;;4.30;99.90;;;;;;7341940;32;20686;-62
2023/01/28 14:26:42;;;;;;;12.00;10.82;;;4.30;99.90;;;;;;7329914;32;20125;-62
2023/01/28 14:30:53;;;;;;;10.70;9.70;;;4.00;99.90;;;;;;7336511;32;20228;-63
2023/01/28 14:34:58;;;;;;;11.60;10.40;;;3.80;99.90;;;;;;7342197;32;20107;-62
2023/01/28 14:39:01;;;;;;;11.30;10.23;;;3.20;99.90;;;;;;7328323;32;20173;-62
2023/01/28 14:43:11;;;;;;;12.68;10.95;;;2.90;99.90;;;;;;7324765;32;20162;-62
2023/01/28 14:47:35;;;;;;;14.73;10.88;;;2.70;99.90;;;;;;7333105;32;20194;-61
2023/01/28 14:51:53;;;;;;;14.57;11.85;;;2.70;99.90;;;;;;7347315;32;20242;-63
2023/01/28 14:56:02;;;;;;;13.30;11.12;;;2.60;99.90;;;;;;7319277;32;20112;-61
2023/01/28 15:00:20;;;;;;;12.43;11.12;;;2.40;99.90;;;;;;7329857;32;20133;-62
2023/01/28 15:04:33;;;;;;;13.00;11.45;;;2.30;99.90;;;;;;7349272;32;20198;-61
2023/01/28 15:08:34;;;;;;;14.13;11.20;;;2.20;99.90;;;;;;7333128;32;20291;-62
2023/01/28 15:12:38;;;;;;;14.15;11.35;;;2.20;99.90;;;;;;7347841;32;20448;-62
2023/01/28 15:16:45;;;;;;;12.75;11.32;;;2.00;99.90;;;;;;7335563;32;20129;-62
2023/01/28 15:20:51;;;;;;;12.80;11.52;;;1.80;99.90;;;;;;7331275;32;20134;-64
2023/01/28 15:24:54;;;;;;;12.57;11.23;;;1.80;99.90;;;;;;7345546;32;20107;-63
2023/01/28 15:28:56;;;;;;;14.52;12.27;;;1.60;99.90;;;;;;7337024;32;20221;-62
2023/01/28 15:33:01;;;;;;;14.27;11.90;;;1.50;99.90;;;;;;7333416;32;20103;-61
2023/01/28 15:37:03;;;;;;;17.37;13.32;;;1.40;99.90;;;;;;7346248;32;20584;-61
2023/01/28 15:41:05;;;;;;;13.32;11.93;;;1.40;99.90;;;;;;7331910;32;20111;-62
2023/01/28 15:45:16;;;;;;;19.05;13.73;;;1.30;99.90;;;;;;7336890;32;20111;-63
2023/01/28 15:49:18;;;;;;;17.08;13.40;;;1.20;99.90;;;;;;7335719;32;20107;-62
2023/01/28 15:53:20;;;;;;;15.57;12.75;;;1.10;99.90;;;;;;7342796;32;20441;-63
2023/01/28 15:57:29;;;;;;;17.77;12.15;;;1.00;99.90;;;;;;7334839;32;20198;-61
2023/01/28 16:01:31;;;;;;;15.57;13.13;;;1.00;99.90;;;;;;7333016;32;20281;-64
2023/01/28 16:05:38;;;;;;;16.20;12.43;;;0.90;99.90;;;;;;7341033;32;20127;-64
2023/01/28 16:09:40;;;;;;;17.65;14.35;;;0.90;99.90;;;;;;7337198;32;20141;-63
2023/01/28 16:13:43;;;;;;;19.62;14.15;;;0.80;99.90;;;;;;7340599;32;20300;-62
2023/01/28 16:17:50;;;;;;;24.12;14.38;;;0.70;99.90;;;;;;7322609;32;20604;-62
2023/01/28 16:21:52;;;;;;;17.80;14.00;;;0.60;99.90;;;;;;7339107;32;20202;-63
2023/01/28 16:26:05;;;;;;;18.08;13.30;;;0.50;99.90;;;;;;7344165;32;20237;-60
2023/01/28 16:30:10;;;;;;;22.30;14.57;;;0.40;99.90;;;;;;7343121;32;20103;-62
2023/01/28 16:34:11;;;;;;;23.27;16.77;;;0.30;99.90;;;;;;7341910;32;20635;-60
2023/01/28 16:38:15;;;;;;;20.73;15.70;;;0.30;99.90;;;;;;7341212;32;20107;-60
2023/01/28 16:42:18;;;;;;;20.52;16.20;;;0.20;99.90;;;;;;7331588;32;20107;-60
2023/01/28 16:46:19;;;;;;;20.00;15.27;;;0.10;99.90;;;;;;7346646;32;20108;-61
2023/01/28 16:50:21;;;;;;;18.00;13.93;;;0.00;99.90;;;;;;7340973;32;20170;-61
2023/01/28 16:54:23;;;;;;;23.38;15.82;;;-0.20;99.90;;;;;;7336031;32;20103;-60
2023/01/28 16:58:26;;;;;;;20.35;15.82;;;-0.30;99.90;;;;;;7342299;32;20407;-60
2023/01/28 17:02:28;;;;;;;23.62;17.70;;;-0.40;99.90;;;;;;7337664;32;20482;-61
2023/01/28 17:06:29;;;;;;;24.30;17.42;;;-0.40;99.90;;;;;;7339398;32;20202;-61
2023/01/28 17:10:31;;;;;;;28.35;16.90;;;-0.50;99.90;;;;;;7339916;32;20126;-60
2023/01/28 17:14:33;;;;;;;26.80;17.15;;;-0.60;99.90;;;;;;7341293;32;20509;-61
2023/01/28 17:18:35;;;;;;;26.05;15.73;;;-0.70;99.90;;;;;;7331721;32;20108;-60
2023/01/28 17:22:36;;;;;;;21.42;15.98;;;-0.60;99.90;;;;;;7337596;32;20103;-61
2023/01/28 17:26:38;;;;;;;19.42;14.40;;;-0.80;99.90;;;;;;7342255;32;20229;-61
2023/01/28 17:30:40;;;;;;;22.42;16.27;;;-0.90;99.90;;;;;;7340791;32;20208;-61
2023/01/28 17:34:42;;;;;;;22.10;16.60;;;-0.90;99.90;;;;;;7343067;32;20132;-60
2023/01/28 17:38:44;;;;;;;23.92;17.52;;;-0.90;99.90;;;;;;7342918;32;20130;-60
2023/01/28 17:42:46;;;;;;;25.50;16.65;;;-1.00;99.90;;;;;;7346559;32;20190;-61
2023/01/28 17:46:47;;;;;;;27.17;16.90;;;-1.00;99.90;;;;;;7344788;32;20199;-61
2023/01/28 17:50:49;;;;;;;30.15;17.58;;;-1.10;99.90;;;;;;7343399;32;20509;-59
2023/01/28 17:54:51;;;;;;;25.40;17.83;;;-1.10;99.90;;;;;;7338679;32;20433;-60
2023/01/28 17:58:58;;;;;;;26.17;16.40;;;-1.20;99.90;;;;;;7346920;32;20226;-60
2023/01/28 18:03:00;;;;;;;30.23;18.15;;;-1.20;99.90;;;;;;7341605;32;20175;-60
2023/01/28 18:07:02;;;;;;;25.85;18.40;;;-1.20;99.90;;;;;;7333586;32;20241;-61
2023/01/28 18:11:08;;;;;;;28.87;18.40;;;-1.20;99.90;;;;;;7344261;32;20123;-61
2023/01/28 18:15:10;;;;;;;26.02;17.90;;;-1.20;99.90;;;;;;7345676;32;20540;-62
2023/01/28 18:19:12;;;;;;;28.83;18.23;;;-1.30;99.90;;;;;;7343400;32;20115;-61
2023/01/28 18:23:14;;;;;;;27.50;19.58;;;-1.30;99.90;;;;;;7339447;32;20127;-61
2023/01/28 18:27:16;;;;;;;29.90;20.02;;;-1.30;99.90;;;;;;7344055;32;20187;-62
2023/01/28 18:31:18;;;;;;;26.05;18.17;;;-1.30;99.90;;;;;;7337471;32;20184;-61
2023/01/28 18:35:20;;;;;;;27.90;18.77;;;-1.30;99.90;;;;;;7344548;32;20133;-62
2023/01/28 18:39:23;;;;;;;27.10;19.48;;;-1.40;99.90;;;;;;7349869;32;20261;-61
2023/01/28 18:43:25;;;;;;;30.12;19.73;;;-1.40;99.90;;;;;;7341439;32;20100;-60
2023/01/28 18:47:27;;;;;;;31.30;20.00;;;-1.50;99.90;;;;;;7331887;32;20517;-63
2023/01/28 18:51:28;;;;;;;32.70;19.52;;;-1.50;99.90;;;;;;7344252;32;20850;-60
2023/01/28 18:55:31;;;;;;;28.77;19.87;;;-1.60;99.90;;;;;;7339577;32;20137;-61
2023/01/28 18:59:33;;;;;;;34.67;20.08;;;-1.60;99.90;;;;;;7341878;32;22924;-61
2023/01/28 19:03:36;;;;;;;29.37;18.90;;;-1.70;99.90;;;;;;7321746;32;20133;-61
2023/01/28 19:07:38;;;;;;;31.92;20.25;;;-1.70;99.90;;;;;;7316970;32;20230;-61
2023/01/28 19:11:40;;;;;;;31.52;20.62;;;-1.70;99.90;;;;;;7342092;32;20206;-61
2023/01/28 19:15:42;;;;;;;38.22;20.25;;;-1.70;99.90;;;;;;7341412;32;20103;-61
2023/01/28 19:19:44;;;;;;;32.42;20.40;;;-1.70;99.90;;;;;;7346707;32;20103;-61
2023/01/28 19:23:46;;;;;;;35.70;20.58;;;-1.80;99.90;;;;;;7341267;32;20127;-61
2023/01/28 19:27:53;;;;;;;32.60;20.77;;;-1.80;99.90;;;;;;7339942;32;20198;-62
2023/01/28 19:31:55;;;;;;;35.03;20.80;;;-1.80;99.90;;;;;;7334459;32;20191;-61
2023/01/28 19:35:58;;;;;;;34.03;21.12;;;-1.90;99.90;;;;;;7341944;32;20456;-63
2023/01/28 19:40:00;;;;;;;35.17;22.42;;;-2.00;99.90;;;;;;7339011;32;20713;-61
2023/01/28 19:44:03;;;;;;;38.63;22.77;;;-2.00;99.90;;;;;;7334049;32;20103;-60
2023/01/28 19:48:05;;;;;;;39.50;23.08;;;-2.00;99.90;;;;;;7339470;32;20140;-60
2023/01/28 19:52:09;;;;;;;37.17;23.12;;;-1.90;99.90;;;;;;7329399;32;20107;-61
2023/01/28 19:56:13;;;;;;;36.65;21.95;;;-2.00;99.90;;;;;;7341364;32;20124;-62
2023/01/28 20:00:15;;;;;;;35.88;22.10;;;-1.90;99.90;;;;;;7340244;32;20133;-60
2023/01/28 20:04:17;;;;;;;39.13;23.95;;;-2.00;99.90;;;;;;7342661;32;20131;-63
2023/01/28 20:08:19;;;;;;;44.55;26.02;;;-2.00;99.90;;;;;;7340290;32;20100;-62
2023/01/28 20:12:20;;;;;;;47.58;29.05;;;-2.10;99.90;;;;;;7332841;32;20590;-61
2023/01/28 20:16:30;;;;;;;46.13;26.23;;;-2.10;99.90;;;;;;7338712;32;20116;-61
2023/01/28 20:20:32;;;;;;;42.90;25.88;;;-2.20;99.90;;;;;;7346028;32;20193;-62
2023/01/28 20:24:34;;;;;;;41.33;23.45;;;-2.20;99.90;;;;;;7341569;32;20601;-64
2023/01/28 20:28:36;;;;;;;40.47;24.50;;;-2.30;99.90;;;;;;7338572;32;20194;-61
2023/01/28 20:32:37;;;;;;;42.35;24.73;;;-2.40;99.90;;;;;;7338421;32;20569;-61
2023/01/28 20:36:39;;;;;;;39.72;24.15;;;-2.30;99.90;;;;;;7342341;32;20107;-62
2023/01/28 20:40:41;;;;;;;39.40;23.70;;;-2.30;99.90;;;;;;7331453;32;20125;-62
2023/01/28 20:44:43;;;;;;;46.78;24.50;;;-2.30;99.90;;;;;;7343678;32;20099;-61
2023/01/28 20:48:46;;;;;;;46.35;25.10;;;-2.40;99.90;;;;;;7336585;32;20576;-61
2023/01/28 20:52:48;;;;;;;45.75;25.30;;;-2.40;99.90;;;;;;7345604;32;20604;-61
2023/01/28 20:56:51;;;;;;;45.05;24.58;;;-2.40;99.90;;;;;;7340981;32;20299;-61
2023/01/28 21:00:53;;;;;;;52.62;28.42;;;-2.50;99.90;;;;;;7334304;32;20567;-62
2023/01/28 21:04:54;;;;;;;53.20;30.00;;;-2.50;99.90;;;;;;7337814;32;20218;-63
2023/01/28 21:08:56;;;;;;;55.70;29.02;;;-2.50;99.90;;;;;;7339576;32;20115;-61
2023/01/28 21:12:58;;;;;;;60.08;30.52;;;-2.50;99.90;;;;;;7338601;32;20107;-63
2023/01/28 21:17:00;;;;;;;59.97;29.75;;;-2.60;99.90;;;;;;7339136;32;20525;-62
2023/01/28 21:21:04;;;;;;;59.35;30.08;;;-2.50;99.90;;;;;;7344210;32;20191;-60
2023/01/28 21:25:06;;;;;;;60.17;30.05;;;-2.50;99.90;;;;;;7347191;32;20118;-63
2023/01/28 21:29:08;;;;;;;59.72;28.25;;;-2.60;99.90;;;;;;7331471;32;20565;-64
2023/01/28 21:33:10;;;;;;;45.42;26.30;;;-2.60;99.90;;;;;;7347743;32;20555;-63
2023/01/28 21:37:12;;;;;;;46.65;27.65;;;-2.70;99.90;;;;;;7341199;32;20221;-62